Flight Track Log - Related Links

Times and Time Zones

All times are in EDT time to prevent confusion due to time zone crossing. See the DAL1981 flight status page for this flight to view local times or setup timezone preferences in your user account.


Time Position Orientation Groundspeed Altitude Reporting Facility
EDT Latitude Longitude Course Direction KTS MPH feet Rate Location/Type
Sun 04:16:45 PM 38.6333 -121.5667 76° East 215 247 1,900  Level Northern Cal TRACON
Sun 04:17:45 PM 38.6167 -121.4833 104° East 276 318 4,100 2,500 Climbing Northern Cal TRACON
Sun 04:18:45 PM 38.6167 -121.3833 90° East 279 321 6,900 2,650 Climbing Northern Cal TRACON
Sun 04:19:00 PM 38.5386 -121.0738 76° East  Level FlightAware Approximate
Sun 04:19:45 PM 38.6333 -121.2833 78° East 308 354 9,400  Level Northern Cal TRACON
Sun 04:20:00 PM 38.5683 -120.9076 78° East  Level FlightAware Approximate
Sun 04:21:00 PM 38.5960 -120.7408 78° East  Level FlightAware Approximate
Sun 04:21:13 PM 38.6439 -121.1183 85° East 324 373 12,600  Level Oakland Center
Sun 04:22:00 PM 38.6283 -120.5753 76° East  Level FlightAware Approximate
Sun 04:22:15 PM 38.6536 -121.0033 84° East 323 372 15,200  Level Oakland Center
Sun 04:23:16 PM 38.6633 -120.8833 84° East 336 387 17,100 2,000 Climbing Oakland Center
Sun 04:24:18 PM 38.6736 -120.7578 84° East 353 406 19,300 1,951 Climbing Oakland Center
Sun 04:25:19 PM 38.6836 -120.6289 84° East 362 417 21,100 1,659 Climbing Oakland Center
Sun 04:26:21 PM 38.7033 -120.4989 79° East 371 427 22,700 1,659 Climbing Oakland Center
Sun 04:27:22 PM 38.7594 -120.3497 64° Northeast 387 445 24,500 1,463 Climbing Oakland Center
Sun 04:28:24 PM 38.8058 -120.2206 65° Northeast 397 457 25,700 823 Climbing Oakland Center
Sun 04:29:26 PM 38.8556 -120.0861 65° Northeast 416 479 26,200 537 Climbing Oakland Center
Sun 04:30:27 PM 38.9086 -119.9417 65° Northeast 444 511 26,800 683 Climbing Oakland Center
Sun 04:31:29 PM 38.9678 -119.7733 66° East 471 542 27,600 1,073 Climbing Oakland Center
Sun 04:32:30 PM 39.0231 -119.6175 65° Northeast 479 551 29,000 1,268 Climbing Oakland Center
Sun 04:33:32 PM 39.0778 -119.4642 65° Northeast 475 547 30,200 968 Climbing Oakland Center
Sun 04:34:34 PM 39.1328 -119.3092 65° Northeast 476 548 31,000 390 Climbing Oakland Center
Sun 04:35:35 PM 39.1867 -119.1533 66° East 477 549 31,000  Level Oakland Center
Sun 04:36:37 PM 39.2414 -118.9969 66° East 473 544 31,000  Level Oakland Center
Sun 04:37:38 PM 39.2956 -118.8403 66° East 476 548 31,000  Level Oakland Center
Sun 04:38:40 PM 39.3486 -118.6836 66° East 475 547 31,000  Level Oakland Center
Sun 04:39:42 PM 39.4144 -118.4942 66° East 475 547 31,000  Level Oakland Center
Sun 04:40:43 PM 39.4622 -118.3550 66° East 477 549 31,000  Level Oakland Center
Sun 04:41:45 PM 39.5153 -118.1989 66° East 476 548 31,000  Level Oakland Center
Sun 04:42:46 PM 39.5678 -118.0417 67° East 477 549 31,000  Level Oakland Center
Sun 04:43:48 PM 39.6433 -117.8619 61° Northeast 474 545 31,000  Level Oakland Center
Sun 04:44:49 PM 39.7272 -117.7308 50° Northeast 472 543 31,000  Level Oakland Center
Sun 04:45:51 PM 39.8269 -117.6125 42° Northeast 474 545 31,000  Level Oakland Center
Sun 04:46:53 PM 39.9169 -117.4969 45° Northeast 474 545 31,000  Level Oakland Center
Sun 04:47:54 PM 39.9858 -117.3258 62° Northeast 477 549 31,000  Level Oakland Center
Sun 04:48:42 PM 40.0267 -117.1983 67° East 478 550 31,000 109 Level Salt Lake Center
Sun 04:49:44 PM 40.0744 -117.0447 68° East 478 550 31,200  Climbing Salt Lake Center
Sun 04:50:46 PM 40.1306 -116.8672 67° East 479 551 31,000 -97 Descending Salt Lake Center
Sun 04:51:48 PM 40.1781 -116.7144 68° East 481 554 31,000  Level Salt Lake Center
Sun 04:52:50 PM 40.2344 -116.5367 67° East 480 552 31,000  Level Salt Lake Center
Sun 04:53:52 PM 40.2819 -116.3828 68° East 478 550 31,000  Level Salt Lake Center
Sun 04:54:54 PM 40.3375 -116.2003 68° East 483 556 31,000  Level Salt Lake Center
Sun 04:55:56 PM 40.3839 -116.0458 68° East 482 555 31,000  Level Salt Lake Center
Sun 04:56:58 PM 40.4369 -115.8639 69° East 480 552 31,000  Level Salt Lake Center
Sun 04:58:00 PM 40.4247 -115.6994 96° East 474 545 31,000  Level Salt Lake Center
Sun 04:59:02 PM 40.3928 -115.5075 102° East 479 551 31,000  Level Salt Lake Center
Sun 05:00:04 PM 40.3933 -115.3417 90° East 480 552 31,000  Level Salt Lake Center
Sun 05:01:06 PM 40.4358 -115.1803 71° East 486 559 31,000  Level Salt Lake Center
Sun 05:02:08 PM 40.4944 -114.9942 67° East 493 567 31,000  Level Salt Lake Center
Sun 05:03:10 PM 40.5408 -114.8339 69° East 492 566 31,000  Level Salt Lake Center
Sun 05:04:12 PM 40.5961 -114.6472 69° East 494 568 31,000  Level Salt Lake Center
Sun 05:05:14 PM 40.6467 -114.4822 68° East 489 563 31,000  Level Salt Lake Center
Sun 05:06:16 PM 40.6961 -114.3150 69° East 490 564 31,000  Level Salt Lake Center
Sun 05:07:19 PM 40.7458 -114.1486 68° East 490 564 31,000  Level Salt Lake Center
Sun 05:08:21 PM 40.8047 -113.9481 69° East 490 564 31,000  Level Salt Lake Center
Sun 05:09:22 PM 40.8542 -113.7789 69° East 494 568 31,000  Level Salt Lake Center
Sun 05:10:25 PM 40.9047 -113.6094 68° East 496 571 31,000  Level Salt Lake Center
Sun 05:11:27 PM 40.9531 -113.4375 70° East 499 574 31,000  Level Salt Lake Center
Sun 05:12:29 PM 41.0033 -113.2639 69° East 504 580 31,000  Level Salt Lake Center
Sun 05:13:31 PM 41.0519 -113.0883 70° East 507 583 31,000  Level Salt Lake Center
Sun 05:14:33 PM 41.1111 -112.8781 69° East 508 585 31,000  Level Salt Lake Center
Sun 05:15:35 PM 41.1608 -112.7025 69° East 508 585 31,000  Level Salt Lake Center
Sun 05:16:37 PM 41.2097 -112.5258 70° East 511 588 31,000  Level Salt Lake Center
Sun 05:17:39 PM 41.2589 -112.3489 70° East 509 586 31,000  Level Salt Lake Center
Sun 05:18:41 PM 41.3078 -112.1714 70° East 508 585 31,000  Level Salt Lake Center
Sun 05:19:43 PM 41.3561 -111.9933 70° East 506 582 31,000  Level Salt Lake Center
Sun 05:20:46 PM 41.4058 -111.8131 70° East 512 589 31,000  Level Salt Lake Center
Sun 05:21:47 PM 41.4533 -111.6325 71° East 513 590 31,000  Level Salt Lake Center
Sun 05:22:49 PM 41.5106 -111.4178 70° East 509 586 31,000  Level Salt Lake Center
Sun 05:23:51 PM 41.5578 -111.2386 71° East 511 588 31,000  Level Salt Lake Center
Sun 05:24:53 PM 41.6044 -111.0589 71° East 511 588 31,000  Level Salt Lake Center
Sun 05:25:55 PM 41.6544 -110.8722 70° East 515 593 31,000  Level Salt Lake Center
Sun 05:26:57 PM 41.6992 -110.7003 71° East 512 589 31,000  Level Salt Lake Center
Sun 05:27:59 PM 41.7500 -110.4992 71° East 512 589 31,000  Level Salt Lake Center
Sun 05:29:01 PM 41.7944 -110.3267 71° East 510 587 31,000  Level Salt Lake Center
Sun 05:30:03 PM 41.8447 -110.1256 71° East 510 587 31,000  Level Salt Lake Center
Sun 05:31:05 PM 41.8892 -109.9517 71° East 513 590 31,000  Level Salt Lake Center
Sun 05:32:07 PM 41.9394 -109.7469 72° East 517 595 31,000  Level Salt Lake Center
Sun 05:33:09 PM 41.9831 -109.5708 72° East 517 595 31,000  Level Salt Lake Center
Sun 05:34:11 PM 42.0328 -109.3650 72° East 516 594 31,000  Level Salt Lake Center
Sun 05:35:13 PM 42.0764 -109.1889 71° East 517 595 31,000  Level Salt Lake Center
Sun 05:36:15 PM 42.1244 -108.9836 72° East 514 592 31,000  Level Salt Lake Center
Sun 05:37:17 PM 42.1667 -108.8078 72° East 514 592 31,000  Level Salt Lake Center
Sun 05:38:19 PM 42.2089 -108.6292 72° East 520 598 31,000  Level Salt Lake Center
Sun 05:39:21 PM 42.2583 -108.4233 72° East 518 596 31,000  Level Salt Lake Center
Sun 05:40:23 PM 42.2978 -108.2447 73° East 517 595 31,000  Level Salt Lake Center
Sun 05:41:26 PM 42.3458 -108.0372 73° East 517 595 31,000  Level Salt Lake Center
Sun 05:42:28 PM 42.3847 -107.8581 74° East 519 597 31,000  Level Salt Lake Center
Sun 05:43:30 PM 42.4322 -107.6500 73° East 518 596 31,000  Level Salt Lake Center
Sun 05:44:32 PM 42.4722 -107.4722 73° East 516 594 31,000  Level Salt Lake Center
Sun 05:45:18 PM 42.5058 -107.3233 73° East 515 593 31,000  Level Denver Center
Sun 05:46:20 PM 42.5439 -107.1436 74° East 518 596 31,000  Level Denver Center
Sun 05:47:22 PM 42.5850 -106.9336 75° East 516 594 31,000  Level Denver Center
Sun 05:48:24 PM 42.6083 -106.7244 81° East 518 596 31,000  Level Denver Center
Sun 05:49:26 PM 42.6294 -106.5406 81° East 516 594 31,000  Level Denver Center
Sun 05:50:28 PM 42.6547 -106.3250 81° East 516 594 31,000  Level Denver Center
Sun 05:51:30 PM 42.6744 -106.1400 82° East 516 594 31,000  Level Denver Center
Sun 05:52:32 PM 42.6919 -105.9225 84° East 518 596 31,000  Level Denver Center
Sun 05:53:34 PM 42.7078 -105.7375 83° East 516 594 31,000  Level Denver Center
Sun 05:54:36 PM 42.7247 -105.5528 83° East 515 593 31,000  Level Denver Center
Sun 05:55:38 PM 42.7411 -105.3361 84° East 516 594 31,000  Level Denver Center
Sun 05:56:40 PM 42.7525 -105.1489 85° East 516 594 31,000  Level Denver Center
Sun 05:57:43 PM 42.7633 -104.9300 86° East 517 595 31,000  Level Denver Center
Sun 05:58:45 PM 42.7669 -104.7392 88° East 520 598 31,000  Level Denver Center
Sun 05:59:47 PM 42.7675 -104.5139 90° East 523 602 31,000  Level Denver Center
Sun 06:00:49 PM 42.7669 -104.3208 90° East 525 604 31,000  Level Denver Center
Sun 06:01:51 PM 42.7653 -104.1314 91° East 523 602 31,000  Level Denver Center
Sun 06:02:53 PM 42.7847 -103.9133 83° East 522 601 31,000  Level Denver Center
Sun 06:03:55 PM 42.8228 -103.7347 74° East 515 593 31,000  Level Denver Center
Sun 06:04:57 PM 42.8728 -103.5233 72° East 525 604 31,000  Level Denver Center
Sun 06:05:59 PM 42.9125 -103.3431 73° East 521 600 31,000  Level Denver Center
Sun 06:07:01 PM 42.9619 -103.1333 72° East 521 600 31,000  Level Denver Center
Sun 06:08:03 PM 43.0022 -102.9544 73° East 517 595 31,000  Level Denver Center
Sun 06:09:05 PM 43.0503 -102.7450 73° East 518 596 31,000  Level Denver Center
Sun 06:10:07 PM 43.0911 -102.5656 73° East 517 595 31,000  Level Denver Center
Sun 06:11:10 PM 43.1375 -102.3564 73° East 516 594 31,000  Level Denver Center
Sun 06:12:12 PM 43.1764 -102.1761 73° East 516 594 31,000  Level Denver Center
Sun 06:13:14 PM 43.2231 -101.9656 73° East 518 596 31,000  Level Denver Center
Sun 06:14:16 PM 43.2617 -101.7856 74° East 516 594 31,000  Level Denver Center
Sun 06:15:18 PM 43.3081 -101.5739 73° East 517 595 31,000  Level Denver Center
Sun 06:16:20 PM 43.3481 -101.3853 74° East 517 595 31,000  Level Denver Center
Sun 06:17:22 PM 43.3883 -101.1969 74° East 516 594 31,000  Level Denver Center
Sun 06:18:24 PM 43.4272 -101.0075 74° East 516 594 31,000  Level Denver Center
Sun 06:19:26 PM 43.4664 -100.8203 74° East 514 592 31,000  Level Minneapolis Center
Sun 06:20:28 PM 43.5042 -100.6286 75° East 516 594 31,000  Level Denver Center
Sun 06:21:30 PM 43.5500 -100.4036 74° East 513 590 31,000  Level Minneapolis Center
Sun 06:22:32 PM 43.5869 -100.2142 75° East 512 589 31,000  Level Denver Center
Sun 06:23:34 PM 43.6244 -100.0281 74° East 511 588 31,000  Level Minneapolis Center
Sun 06:24:36 PM 43.6614 -99.8364 75° East 513 590 31,000  Level Minneapolis Center
Sun 06:25:38 PM 43.6983 -99.6469 75° East 515 593 31,000  Level Minneapolis Center
Sun 06:26:40 PM 43.7350 -99.4569 75° East 515 593 31,000  Level Minneapolis Center
Sun 06:27:42 PM 43.7772 -99.2297 75° East 511 588 31,000  Level Minneapolis Center
Sun 06:28:44 PM 43.8131 -99.0406 75° East 511 588 31,000  Level Minneapolis Center
Sun 06:29:46 PM 43.8489 -98.8517 75° East 511 588 31,000  Level Minneapolis Center
Sun 06:30:48 PM 43.8847 -98.6531 76° East 514 592 31,000  Level Minneapolis Center
Sun 06:31:50 PM 43.9194 -98.4628 76° East 512 589 31,000  Level Minneapolis Center
Sun 06:32:53 PM 43.9528 -98.2731 76° East 510 587 31,000  Level Minneapolis Center
Sun 06:33:55 PM 43.9869 -98.0831 76° East 509 586 31,000  Level Minneapolis Center
Sun 06:34:57 PM 44.0281 -97.8553 76° East 509 586 31,000  Level Minneapolis Center
Sun 06:35:59 PM 44.0608 -97.6656 76° East 508 585 31,000  Level Minneapolis Center
Sun 06:37:01 PM 44.0922 -97.4778 77° East 503 579 31,000  Level Minneapolis Center
Sun 06:38:03 PM 44.1250 -97.2889 76° East 503 579 31,000  Level Minneapolis Center
Sun 06:39:05 PM 44.1553 -97.1014 77° East 499 574 31,000  Level Minneapolis Center
Sun 06:40:07 PM 44.1861 -96.9131 77° East 500 575 31,000  Level Minneapolis Center
Sun 06:41:09 PM 44.2239 -96.6878 77° East 498 573 31,000  Level Minneapolis Center
Sun 06:42:11 PM 44.2547 -96.4972 77° East 501 577 31,000  Level Minneapolis Center
Sun 06:43:13 PM 44.2864 -96.3072 77° East 498 573 31,000  Level Minneapolis Center
Sun 06:44:15 PM 44.3172 -96.1083 78° East 507 583 31,000  Level Minneapolis Center
Sun 06:45:17 PM 44.3475 -95.9186 77° East 499 574 31,000  Level Minneapolis Center
Sun 06:46:20 PM 44.3772 -95.7286 78° East 499 574 31,000 -432 Level Minneapolis Center
Sun 06:47:22 PM 44.4050 -95.5411 78° East 494 568 30,100 -1,210 Descending Minneapolis Center
Sun 06:48:24 PM 44.4347 -95.3514 78° East 498 573 28,500 -2,032 Descending Minneapolis Center
Sun 06:49:26 PM 44.4697 -95.1247 78° East 498 573 25,900 -2,516 Descending Minneapolis Center
Sun 06:50:28 PM 44.5086 -94.9467 73° East 485 558 23,300 -2,565 Descending Minneapolis Center
Sun 06:51:30 PM 44.5497 -94.7789 71° East 464 534 20,600 -2,661 Descending Minneapolis Center
Sun 06:52:32 PM 44.5889 -94.6044 72° East 438 504 17,800 -2,516 Descending Minneapolis Center
Sun 06:53:34 PM 44.6250 -94.4514 72° East 412 474 15,400 -2,032 Descending Minneapolis Center
Sun 06:54:36 PM 44.6589 -94.3042 72° East 396 456 13,600 -1,645 Descending Minneapolis Center
Sun 06:55:38 PM 44.6919 -94.1614 72° East 387 445 12,000 -774 Descending Minneapolis Center
Sun 06:56:40 PM 44.7236 -94.0186 73° East 385 443 12,000  Level Minneapolis Center
Sun 06:57:42 PM 44.7547 -93.8789 73° East 379 436 12,000  Level Minneapolis Center
Sun 06:58:44 PM 44.7922 -93.7094 73° East 376 433 12,000 -532 Level Minneapolis Center
Sun 06:59:46 PM 44.8200 -93.5839 73° East 331 381 10,900 -1,065 Descending Minneapolis Center
Sun 07:00:48 PM 44.8447 -93.4703 73° East 303 349 9,800 -1,161 Descending Minneapolis Center
Sun 07:01:50 PM 44.8644 -93.3636 75° East 285 328 8,500 -871 Descending Minneapolis Center
Sun 07:02:52 PM 44.8108 -93.3167 148° Southeast 249 287 8,000 -871 Descending Minneapolis Center
Sun 07:03:54 PM 44.7453 -93.3111 177° South 245 282 6,700 -1,403 Descending Minneapolis Center
Sun 07:04:56 PM 44.6661 -93.3119 180° South 243 280 5,100 -1,296 Descending Minneapolis Center
Sun 07:05:59 PM 44.6611 -93.2475 96° East 211 243 4,000 -720 Descending Minneapolis Center
Sun 07:07:01 PM 44.7122 -93.2267 16° North 193 222 3,600 -532 Descending Minneapolis Center
Sun 07:08:03 PM 44.7642 -93.2106 12° North 170 196 2,900 -726 Descending Minneapolis Center
Sun 07:09:05 PM 44.8067 -93.2211 350° North 160 184 2,100 -774 Descending Minneapolis Center
Sun 07:10:07 PM 44.8453 -93.2311 350° North 145 167 1,300 -774 Descending Minneapolis Center

Login

Don't have an account? Register now (free) for customized features, flight alerts, and more!